sensor_id;sensor_type;location;lat;lon;timestamp;P1;durP1;ratioP1;P2;durP2;ratioP2
78197;SDS011;67472;51.554;7.812;2023-08-06T00:01:53;9.07;;;6.90;;
78197;SDS011;67472;51.554;7.812;2023-08-06T00:04:39;8.00;;;6.03;;
78197;SDS011;67472;51.554;7.812;2023-08-06T00:07:25;6.57;;;5.25;;
78197;SDS011;67472;51.554;7.812;2023-08-06T00:10:13;9.93;;;5.80;;
78197;SDS011;67472;51.554;7.812;2023-08-06T00:12:59;5.47;;;4.90;;
78197;SDS011;67472;51.554;7.812;2023-08-06T00:15:46;8.65;;;4.45;;
78197;SDS011;67472;51.554;7.812;2023-08-06T00:18:32;6.03;;;4.57;;
78197;SDS011;67472;51.554;7.812;2023-08-06T00:21:18;5.22;;;4.03;;
78197;SDS011;67472;51.554;7.812;2023-08-06T00:24:04;11.18;;;4.13;;
78197;SDS011;67472;51.554;7.812;2023-08-06T00:26:53;6.88;;;4.53;;
78197;SDS011;67472;51.554;7.812;2023-08-06T00:29:39;8.32;;;3.90;;
78197;SDS011;67472;51.554;7.812;2023-08-06T00:32:25;7.50;;;3.90;;
78197;SDS011;67472;51.554;7.812;2023-08-06T00:35:11;5.78;;;3.83;;
78197;SDS011;67472;51.554;7.812;2023-08-06T00:37:58;6.45;;;4.45;;
78197;SDS011;67472;51.554;7.812;2023-08-06T00:40:45;4.05;;;3.65;;
78197;SDS011;67472;51.554;7.812;2023-08-06T00:43:33;5.50;;;4.68;;
78197;SDS011;67472;51.554;7.812;2023-08-06T00:46:19;9.40;;;4.20;;
78197;SDS011;67472;51.554;7.812;2023-08-06T00:49:06;5.55;;;4.35;;
78197;SDS011;67472;51.554;7.812;2023-08-06T00:51:53;5.55;;;4.28;;
78197;SDS011;67472;51.554;7.812;2023-08-06T00:54:39;5.82;;;4.50;;
78197;SDS011;67472;51.554;7.812;2023-08-06T00:57:26;4.88;;;4.38;;
78197;SDS011;67472;51.554;7.812;2023-08-06T01:00:14;9.57;;;4.30;;
78197;SDS011;67472;51.554;7.812;2023-08-06T01:03:00;6.40;;;4.18;;
78197;SDS011;67472;51.554;7.812;2023-08-06T01:05:46;5.18;;;4.65;;
78197;SDS011;67472;51.554;7.812;2023-08-06T01:08:36;7.97;;;4.60;;
78197;SDS011;67472;51.554;7.812;2023-08-06T01:11:37;5.75;;;3.97;;
78197;SDS011;67472;51.554;7.812;2023-08-06T01:14:31;7.75;;;4.32;;
78197;SDS011;67472;51.554;7.812;2023-08-06T01:17:25;4.97;;;4.10;;
78197;SDS011;67472;51.554;7.812;2023-08-06T01:20:12;7.05;;;4.20;;
78197;SDS011;67472;51.554;7.812;2023-08-06T01:23:00;5.40;;;3.78;;
78197;SDS011;67472;51.554;7.812;2023-08-06T01:25:49;6.20;;;4.18;;
78197;SDS011;67472;51.554;7.812;2023-08-06T01:28:44;4.57;;;3.88;;
78197;SDS011;67472;51.554;7.812;2023-08-06T01:31:43;4.28;;;3.80;;
78197;SDS011;67472;51.554;7.812;2023-08-06T01:34:31;10.88;;;4.30;;
78197;SDS011;67472;51.554;7.812;2023-08-06T01:37:19;6.80;;;3.72;;
78197;SDS011;67472;51.554;7.812;2023-08-06T01:40:08;5.03;;;4.13;;
78197;SDS011;67472;51.554;7.812;2023-08-06T01:42:55;4.28;;;3.80;;
78197;SDS011;67472;51.554;7.812;2023-08-06T01:45:42;4.93;;;3.85;;
78197;SDS011;67472;51.554;7.812;2023-08-06T01:48:28;6.95;;;3.83;;
78197;SDS011;67472;51.554;7.812;2023-08-06T01:51:14;7.28;;;4.03;;
78197;SDS011;67472;51.554;7.812;2023-08-06T01:54:00;4.68;;;3.90;;
78197;SDS011;67472;51.554;7.812;2023-08-06T01:56:48;3.92;;;3.63;;
78197;SDS011;67472;51.554;7.812;2023-08-06T01:59:34;7.72;;;4.18;;
78197;SDS011;67472;51.554;7.812;2023-08-06T02:02:21;5.45;;;3.80;;
78197;SDS011;67472;51.554;7.812;2023-08-06T02:05:07;11.27;;;4.30;;
78197;SDS011;67472;51.554;7.812;2023-08-06T02:07:53;6.07;;;3.60;;
78197;SDS011;67472;51.554;7.812;2023-08-06T02:10:39;5.88;;;4.22;;
78197;SDS011;67472;51.554;7.812;2023-08-06T02:13:27;6.07;;;4.07;;
78197;SDS011;67472;51.554;7.812;2023-08-06T02:16:13;9.30;;;4.00;;
78197;SDS011;67472;51.554;7.812;2023-08-06T02:18:59;6.88;;;4.05;;
78197;SDS011;67472;51.554;7.812;2023-08-06T02:21:48;7.75;;;4.07;;
78197;SDS011;67472;51.554;7.812;2023-08-06T02:24:34;11.43;;;4.50;;
78197;SDS011;67472;51.554;7.812;2023-08-06T02:27:21;5.18;;;4.30;;
78197;SDS011;67472;51.554;7.812;2023-08-06T02:30:08;9.13;;;4.13;;
78197;SDS011;67472;51.554;7.812;2023-08-06T02:32:57;5.00;;;4.47;;
78197;SDS011;67472;51.554;7.812;2023-08-06T02:35:46;6.07;;;3.65;;
78197;SDS011;67472;51.554;7.812;2023-08-06T02:38:32;4.55;;;4.07;;
78197;SDS011;67472;51.554;7.812;2023-08-06T02:41:18;5.70;;;4.22;;
78197;SDS011;67472;51.554;7.812;2023-08-06T02:44:05;4.82;;;4.15;;
78197;SDS011;67472;51.554;7.812;2023-08-06T02:46:53;5.57;;;3.95;;
78197;SDS011;67472;51.554;7.812;2023-08-06T02:49:39;8.50;;;4.63;;
78197;SDS011;67472;51.554;7.812;2023-08-06T02:52:25;8.55;;;5.15;;
78197;SDS011;67472;51.554;7.812;2023-08-06T02:55:12;15.98;;;5.03;;
78197;SDS011;67472;51.554;7.812;2023-08-06T02:58:01;9.60;;;5.55;;
78197;SDS011;67472;51.554;7.812;2023-08-06T03:00:59;6.57;;;4.88;;
78197;SDS011;67472;51.554;7.812;2023-08-06T03:03:49;6.85;;;5.20;;
78197;SDS011;67472;51.554;7.812;2023-08-06T03:06:42;10.10;;;5.55;;
78197;SDS011;67472;51.554;7.812;2023-08-06T03:09:28;10.75;;;5.65;;
78197;SDS011;67472;51.554;7.812;2023-08-06T03:12:15;11.23;;;5.30;;
78197;SDS011;67472;51.554;7.812;2023-08-06T03:15:02;9.18;;;5.05;;
78197;SDS011;67472;51.554;7.812;2023-08-06T03:17:49;6.85;;;4.72;;
78197;SDS011;67472;51.554;7.812;2023-08-06T03:20:40;7.18;;;5.43;;
78197;SDS011;67472;51.554;7.812;2023-08-06T03:23:26;8.38;;;5.35;;
78197;SDS011;67472;51.554;7.812;2023-08-06T03:26:12;8.25;;;4.90;;
78197;SDS011;67472;51.554;7.812;2023-08-06T03:28:59;6.93;;;5.07;;
78197;SDS011;67472;51.554;7.812;2023-08-06T03:31:48;9.63;;;5.00;;
78197;SDS011;67472;51.554;7.812;2023-08-06T03:34:35;17.88;;;5.25;;
78197;SDS011;67472;51.554;7.812;2023-08-06T03:37:23;5.93;;;5.15;;
78197;SDS011;67472;51.554;7.812;2023-08-06T03:40:10;7.43;;;4.85;;
78197;SDS011;67472;51.554;7.812;2023-08-06T03:42:57;6.75;;;4.90;;
78197;SDS011;67472;51.554;7.812;2023-08-06T03:45:43;8.93;;;5.18;;
78197;SDS011;67472;51.554;7.812;2023-08-06T03:48:30;8.93;;;4.55;;
78197;SDS011;67472;51.554;7.812;2023-08-06T03:51:16;9.23;;;4.97;;
78197;SDS011;67472;51.554;7.812;2023-08-06T03:54:06;6.97;;;5.20;;
78197;SDS011;67472;51.554;7.812;2023-08-06T03:56:52;8.93;;;4.78;;
78197;SDS011;67472;51.554;7.812;2023-08-06T03:59:39;9.88;;;4.95;;
78197;SDS011;67472;51.554;7.812;2023-08-06T04:02:25;17.63;;;5.63;;
78197;SDS011;67472;51.554;7.812;2023-08-06T04:05:11;11.65;;;5.60;;
78197;SDS011;67472;51.554;7.812;2023-08-06T04:07:58;7.07;;;5.35;;
78197;SDS011;67472;51.554;7.812;2023-08-06T04:10:48;13.30;;;5.80;;
78197;SDS011;67472;51.554;7.812;2023-08-06T04:13:35;7.57;;;5.30;;
78197;SDS011;67472;51.554;7.812;2023-08-06T04:16:21;11.15;;;5.97;;
78197;SDS011;67472;51.554;7.812;2023-08-06T04:19:08;12.20;;;5.53;;
78197;SDS011;67472;51.554;7.812;2023-08-06T04:21:54;11.35;;;6.32;;
78197;SDS011;67472;51.554;7.812;2023-08-06T04:24:40;7.57;;;6.15;;
78197;SDS011;67472;51.554;7.812;2023-08-06T04:27:27;13.98;;;6.10;;
78197;SDS011;67472;51.554;7.812;2023-08-06T04:30:14;7.18;;;6.25;;
78197;SDS011;67472;51.554;7.812;2023-08-06T04:33:00;10.82;;;6.38;;
78197;SDS011;67472;51.554;7.812;2023-08-06T04:35:47;10.25;;;6.93;;
78197;SDS011;67472;51.554;7.812;2023-08-06T04:38:40;13.52;;;7.43;;
78197;SDS011;67472;51.554;7.812;2023-08-06T04:41:29;9.52;;;7.45;;
78197;SDS011;67472;51.554;7.812;2023-08-06T04:44:17;13.93;;;7.40;;
78197;SDS011;67472;51.554;7.812;2023-08-06T04:47:04;17.27;;;7.07;;
78197;SDS011;67472;51.554;7.812;2023-08-06T04:49:51;16.17;;;8.35;;
78197;SDS011;67472;51.554;7.812;2023-08-06T04:52:37;13.20;;;8.57;;
78197;SDS011;67472;51.554;7.812;2023-08-06T04:55:23;28.27;;;9.38;;
78197;SDS011;67472;51.554;7.812;2023-08-06T04:58:10;14.40;;;8.88;;
78197;SDS011;67472;51.554;7.812;2023-08-06T05:00:58;10.32;;;8.23;;
78197;SDS011;67472;51.554;7.812;2023-08-06T05:03:44;11.05;;;8.63;;
78197;SDS011;67472;51.554;7.812;2023-08-06T05:06:31;15.75;;;8.57;;
78197;SDS011;67472;51.554;7.812;2023-08-06T05:09:17;15.57;;;8.48;;
78197;SDS011;67472;51.554;7.812;2023-08-06T05:12:04;11.05;;;7.85;;
78197;SDS011;67472;51.554;7.812;2023-08-06T05:14:51;17.27;;;8.57;;
78197;SDS011;67472;51.554;7.812;2023-08-06T05:17:38;10.73;;;8.25;;
78197;SDS011;67472;51.554;7.812;2023-08-06T05:20:24;14.15;;;9.65;;
78197;SDS011;67472;51.554;7.812;2023-08-06T05:23:11;10.10;;;8.07;;
78197;SDS011;67472;51.554;7.812;2023-08-06T05:25:57;14.57;;;7.80;;
78197;SDS011;67472;51.554;7.812;2023-08-06T05:28:43;16.02;;;8.38;;
78197;SDS011;67472;51.554;7.812;2023-08-06T05:31:30;13.50;;;7.45;;
78197;SDS011;67472;51.554;7.812;2023-08-06T05:34:18;12.57;;;7.75;;
78197;SDS011;67472;51.554;7.812;2023-08-06T05:37:04;12.23;;;8.13;;
78197;SDS011;67472;51.554;7.812;2023-08-06T05:39:51;12.00;;;7.78;;
78197;SDS011;67472;51.554;7.812;2023-08-06T05:42:38;12.20;;;7.28;;
78197;SDS011;67472;51.554;7.812;2023-08-06T05:45:24;11.68;;;7.60;;
78197;SDS011;67472;51.554;7.812;2023-08-06T05:48:10;10.35;;;7.60;;
78197;SDS011;67472;51.554;7.812;2023-08-06T05:50:58;10.63;;;7.30;;
78197;SDS011;67472;51.554;7.812;2023-08-06T05:53:44;13.82;;;7.18;;
78197;SDS011;67472;51.554;7.812;2023-08-06T05:56:31;9.27;;;7.35;;
78197;SDS011;67472;51.554;7.812;2023-08-06T05:59:17;19.40;;;7.80;;
78197;SDS011;67472;51.554;7.812;2023-08-06T06:02:03;12.52;;;6.00;;
78197;SDS011;67472;51.554;7.812;2023-08-06T06:04:50;8.82;;;7.22;;
78197;SDS011;67472;51.554;7.812;2023-08-06T06:07:37;9.82;;;7.20;;
78197;SDS011;67472;51.554;7.812;2023-08-06T06:10:23;8.90;;;7.00;;
78197;SDS011;67472;51.554;7.812;2023-08-06T06:13:09;9.27;;;7.18;;
78197;SDS011;67472;51.554;7.812;2023-08-06T06:15:55;9.40;;;6.25;;
78197;SDS011;67472;51.554;7.812;2023-08-06T06:18:41;8.90;;;5.70;;
78197;SDS011;67472;51.554;7.812;2023-08-06T06:21:28;7.43;;;5.45;;
78197;SDS011;67472;51.554;7.812;2023-08-06T06:24:15;9.38;;;5.57;;
78197;SDS011;67472;51.554;7.812;2023-08-06T06:27:01;9.23;;;5.55;;
78197;SDS011;67472;51.554;7.812;2023-08-06T06:29:48;10.80;;;5.30;;
78197;SDS011;67472;51.554;7.812;2023-08-06T06:32:34;8.40;;;5.88;;
78197;SDS011;67472;51.554;7.812;2023-08-06T06:35:21;9.02;;;4.75;;
78197;SDS011;67472;51.554;7.812;2023-08-06T06:38:07;8.77;;;4.50;;
78197;SDS011;67472;51.554;7.812;2023-08-06T06:40:55;8.90;;;4.65;;
78197;SDS011;67472;51.554;7.812;2023-08-06T06:43:41;7.47;;;4.60;;
78197;SDS011;67472;51.554;7.812;2023-08-06T06:46:28;7.20;;;4.88;;
78197;SDS011;67472;51.554;7.812;2023-08-06T06:49:14;5.22;;;4.03;;
78197;SDS011;67472;51.554;7.812;2023-08-06T06:52:00;4.75;;;3.72;;
78197;SDS011;67472;51.554;7.812;2023-08-06T06:54:46;10.27;;;4.00;;
78197;SDS011;67472;51.554;7.812;2023-08-06T06:57:34;9.38;;;4.35;;
78197;SDS011;67472;51.554;7.812;2023-08-06T07:00:20;4.80;;;3.67;;
78197;SDS011;67472;51.554;7.812;2023-08-06T07:03:06;5.75;;;3.83;;
78197;SDS011;67472;51.554;7.812;2023-08-06T07:05:56;5.43;;;4.20;;
78197;SDS011;67472;51.554;7.812;2023-08-06T07:08:42;5.63;;;4.88;;
78197;SDS011;67472;51.554;7.812;2023-08-06T07:11:29;6.82;;;3.50;;
78197;SDS011;67472;51.554;7.812;2023-08-06T07:14:16;3.58;;;3.22;;
78197;SDS011;67472;51.554;7.812;2023-08-06T07:17:02;2.97;;;2.72;;
78197;SDS011;67472;51.554;7.812;2023-08-06T07:19:49;4.18;;;3.22;;
78197;SDS011;67472;51.554;7.812;2023-08-06T07:22:35;4.22;;;2.60;;
78197;SDS011;67472;51.554;7.812;2023-08-06T07:25:21;8.98;;;3.58;;
78197;SDS011;67472;51.554;7.812;2023-08-06T07:28:07;4.75;;;2.72;;
78197;SDS011;67472;51.554;7.812;2023-08-06T07:30:55;5.63;;;3.20;;
78197;SDS011;67472;51.554;7.812;2023-08-06T07:33:41;3.45;;;2.70;;
78197;SDS011;67472;51.554;7.812;2023-08-06T07:36:27;3.28;;;2.97;;
78197;SDS011;67472;51.554;7.812;2023-08-06T07:39:13;4.10;;;2.75;;
78197;SDS011;67472;51.554;7.812;2023-08-06T07:42:01;3.83;;;3.20;;
78197;SDS011;67472;51.554;7.812;2023-08-06T07:44:51;10.20;;;3.00;;
78197;SDS011;67472;51.554;7.812;2023-08-06T07:47:39;6.78;;;2.28;;
78197;SDS011;67472;51.554;7.812;2023-08-06T07:50:25;6.20;;;2.95;;
78197;SDS011;67472;51.554;7.812;2023-08-06T07:53:12;4.10;;;3.03;;
78197;SDS011;67472;51.554;7.812;2023-08-06T07:55:58;7.18;;;2.55;;
78197;SDS011;67472;51.554;7.812;2023-08-06T07:58:46;3.45;;;2.15;;
78197;SDS011;67472;51.554;7.812;2023-08-06T08:01:32;3.15;;;1.90;;
78197;SDS011;67472;51.554;7.812;2023-08-06T08:04:20;3.03;;;1.90;;
78197;SDS011;67472;51.554;7.812;2023-08-06T08:07:06;2.90;;;2.10;;
78197;SDS011;67472;51.554;7.812;2023-08-06T08:09:53;4.53;;;2.00;;
78197;SDS011;67472;51.554;7.812;2023-08-06T08:12:39;4.00;;;2.10;;
78197;SDS011;67472;51.554;7.812;2023-08-06T08:15:25;4.70;;;2.30;;
78197;SDS011;67472;51.554;7.812;2023-08-06T08:18:11;4.43;;;2.55;;
78197;SDS011;67472;51.554;7.812;2023-08-06T08:20:59;4.63;;;2.35;;
78197;SDS011;67472;51.554;7.812;2023-08-06T08:23:45;2.20;;;2.00;;
78197;SDS011;67472;51.554;7.812;2023-08-06T08:26:31;5.18;;;1.90;;
78197;SDS011;67472;51.554;7.812;2023-08-06T08:29:17;5.53;;;1.95;;
78197;SDS011;67472;51.554;7.812;2023-08-06T08:32:04;3.10;;;1.83;;
78197;SDS011;67472;51.554;7.812;2023-08-06T08:34:51;2.90;;;2.35;;
78197;SDS011;67472;51.554;7.812;2023-08-06T08:37:38;2.40;;;2.15;;
78197;SDS011;67472;51.554;7.812;2023-08-06T08:40:24;3.28;;;1.75;;
78197;SDS011;67472;51.554;7.812;2023-08-06T08:43:15;5.10;;;1.58;;
78197;SDS011;67472;51.554;7.812;2023-08-06T08:46:02;2.75;;;1.67;;
78197;SDS011;67472;51.554;7.812;2023-08-06T08:48:51;4.55;;;1.95;;
78197;SDS011;67472;51.554;7.812;2023-08-06T08:51:38;3.08;;;1.52;;
78197;SDS011;67472;51.554;7.812;2023-08-06T08:54:25;3.47;;;1.98;;
78197;SDS011;67472;51.554;7.812;2023-08-06T08:57:12;3.00;;;1.52;;
78197;SDS011;67472;51.554;7.812;2023-08-06T08:59:59;1.85;;;1.45;;
78197;SDS011;67472;51.554;7.812;2023-08-06T09:02:45;3.50;;;1.58;;
78197;SDS011;67472;51.554;7.812;2023-08-06T09:05:32;1.58;;;1.40;;
78197;SDS011;67472;51.554;7.812;2023-08-06T09:08:21;3.38;;;1.45;;
78197;SDS011;67472;51.554;7.812;2023-08-06T09:11:14;1.75;;;1.45;;
78197;SDS011;67472;51.554;7.812;2023-08-06T09:14:01;3.05;;;1.50;;
78197;SDS011;67472;51.554;7.812;2023-08-06T09:16:47;1.80;;;1.52;;
78197;SDS011;67472;51.554;7.812;2023-08-06T09:19:34;3.55;;;1.30;;
78197;SDS011;67472;51.554;7.812;2023-08-06T09:22:21;1.95;;;1.23;;
78197;SDS011;67472;51.554;7.812;2023-08-06T09:25:07;2.35;;;1.02;;
78197;SDS011;67472;51.554;7.812;2023-08-06T09:27:56;2.95;;;0.95;;
78197;SDS011;67472;51.554;7.812;2023-08-06T09:30:43;1.70;;;0.82;;
78197;SDS011;67472;51.554;7.812;2023-08-06T09:33:29;0.70;;;0.70;;
78197;SDS011;67472;51.554;7.812;2023-08-06T09:36:15;3.55;;;1.20;;
78197;SDS011;67472;51.554;7.812;2023-08-06T09:39:03;3.78;;;2.08;;
78197;SDS011;67472;51.554;7.812;2023-08-06T09:41:59;1.83;;;0.90;;
78197;SDS011;67472;51.554;7.812;2023-08-06T09:44:48;3.13;;;1.40;;
78197;SDS011;67472;51.554;7.812;2023-08-06T09:47:34;1.10;;;0.90;;
78197;SDS011;67472;51.554;7.812;2023-08-06T09:50:22;8.48;;;1.55;;
78197;SDS011;67472;51.554;7.812;2023-08-06T09:53:14;1.77;;;1.55;;
78197;SDS011;67472;51.554;7.812;2023-08-06T09:56:00;2.03;;;1.60;;
78197;SDS011;67472;51.554;7.812;2023-08-06T09:58:46;2.55;;;1.45;;
78197;SDS011;67472;51.554;7.812;2023-08-06T10:01:40;5.70;;;1.73;;
78197;SDS011;67472;51.554;7.812;2023-08-06T10:04:31;2.47;;;1.20;;
78197;SDS011;67472;51.554;7.812;2023-08-06T10:07:36;1.55;;;1.30;;
78197;SDS011;67472;51.554;7.812;2023-08-06T10:10:36;6.90;;;1.70;;
78197;SDS011;67472;51.554;7.812;2023-08-06T10:13:34;2.95;;;1.50;;
78197;SDS011;67472;51.554;7.812;2023-08-06T10:16:42;3.05;;;1.30;;
78197;SDS011;67472;51.554;7.812;2023-08-06T10:23:01;3.17;;;1.50;;
78197;SDS011;67472;51.554;7.812;2023-08-06T10:25:53;3.88;;;1.55;;
78197;SDS011;67472;51.554;7.812;2023-08-06T10:28:41;1.83;;;1.13;;
78197;SDS011;67472;51.554;7.812;2023-08-06T10:34:54;3.03;;;1.30;;
78197;SDS011;67472;51.554;7.812;2023-08-06T10:37:44;5.18;;;2.25;;
78197;SDS011;67472;51.554;7.812;2023-08-06T10:40:31;3.85;;;1.67;;
78197;SDS011;67472;51.554;7.812;2023-08-06T10:43:25;6.95;;;1.40;;
78197;SDS011;67472;51.554;7.812;2023-08-06T10:46:22;4.15;;;1.65;;
78197;SDS011;67472;51.554;7.812;2023-08-06T10:49:11;6.75;;;1.83;;
78197;SDS011;67472;51.554;7.812;2023-08-06T10:51:58;2.78;;;1.40;;
78197;SDS011;67472;51.554;7.812;2023-08-06T10:54:44;5.47;;;1.40;;
78197;SDS011;67472;51.554;7.812;2023-08-06T10:57:30;3.15;;;1.60;;
78197;SDS011;67472;51.554;7.812;2023-08-06T11:00:17;5.47;;;1.77;;
78197;SDS011;67472;51.554;7.812;2023-08-06T11:03:03;3.78;;;1.58;;
78197;SDS011;67472;51.554;7.812;2023-08-06T11:05:51;3.20;;;1.48;;
78197;SDS011;67472;51.554;7.812;2023-08-06T11:08:39;1.45;;;1.35;;
78197;SDS011;67472;51.554;7.812;2023-08-06T11:11:26;1.92;;;1.35;;
78197;SDS011;67472;51.554;7.812;2023-08-06T11:14:14;1.75;;;1.60;;
78197;SDS011;67472;51.554;7.812;2023-08-06T11:17:01;4.35;;;1.50;;
78197;SDS011;67472;51.554;7.812;2023-08-06T11:19:47;4.10;;;1.80;;
78197;SDS011;67472;51.554;7.812;2023-08-06T11:22:35;2.78;;;2.00;;
78197;SDS011;67472;51.554;7.812;2023-08-06T11:25:22;4.13;;;1.40;;
78197;SDS011;67472;51.554;7.812;2023-08-06T11:28:08;5.70;;;1.85;;
78197;SDS011;67472;51.554;7.812;2023-08-06T11:30:55;2.38;;;1.55;;
78197;SDS011;67472;51.554;7.812;2023-08-06T11:33:46;3.90;;;1.70;;
78197;SDS011;67472;51.554;7.812;2023-08-06T11:36:32;3.88;;;2.13;;
78197;SDS011;67472;51.554;7.812;2023-08-06T11:39:21;5.40;;;1.88;;
78197;SDS011;67472;51.554;7.812;2023-08-06T11:42:08;7.45;;;2.17;;
78197;SDS011;67472;51.554;7.812;2023-08-06T11:44:56;2.65;;;1.80;;
78197;SDS011;67472;51.554;7.812;2023-08-06T11:47:42;2.40;;;1.45;;
78197;SDS011;67472;51.554;7.812;2023-08-06T11:50:36;4.32;;;2.05;;
78197;SDS011;67472;51.554;7.812;2023-08-06T11:53:27;5.85;;;1.85;;
78197;SDS011;67472;51.554;7.812;2023-08-06T11:56:19;2.47;;;1.70;;
78197;SDS011;67472;51.554;7.812;2023-08-06T11:59:06;3.40;;;1.77;;
78197;SDS011;67472;51.554;7.812;2023-08-06T12:01:53;4.22;;;1.80;;
78197;SDS011;67472;51.554;7.812;2023-08-06T12:07:57;6.95;;;1.95;;
78197;SDS011;67472;51.554;7.812;2023-08-06T12:10:44;3.63;;;1.83;;
78197;SDS011;67472;51.554;7.812;2023-08-06T12:13:33;2.78;;;1.70;;
78197;SDS011;67472;51.554;7.812;2023-08-06T12:16:20;3.35;;;1.80;;
78197;SDS011;67472;51.554;7.812;2023-08-06T12:19:08;5.95;;;2.40;;
78197;SDS011;67472;51.554;7.812;2023-08-06T12:21:58;5.15;;;2.90;;
78197;SDS011;67472;51.554;7.812;2023-08-06T12:24:45;4.25;;;3.58;;
78197;SDS011;67472;51.554;7.812;2023-08-06T12:27:32;4.15;;;3.75;;
78197;SDS011;67472;51.554;7.812;2023-08-06T12:30:20;7.20;;;3.95;;
78197;SDS011;67472;51.554;7.812;2023-08-06T12:33:07;4.00;;;3.05;;
78197;SDS011;67472;51.554;7.812;2023-08-06T12:35:54;9.65;;;4.45;;
78197;SDS011;67472;51.554;7.812;2023-08-06T12:38:42;5.95;;;3.20;;
78197;SDS011;67472;51.554;7.812;2023-08-06T12:41:28;4.10;;;3.60;;
78197;SDS011;67472;51.554;7.812;2023-08-06T12:44:15;4.00;;;2.95;;
78197;SDS011;67472;51.554;7.812;2023-08-06T12:47:03;3.55;;;3.05;;
78197;SDS011;67472;51.554;7.812;2023-08-06T12:49:49;2.83;;;2.63;;
78197;SDS011;67472;51.554;7.812;2023-08-06T12:52:36;4.28;;;3.00;;
78197;SDS011;67472;51.554;7.812;2023-08-06T12:55:27;3.67;;;2.58;;
78197;SDS011;67472;51.554;7.812;2023-08-06T12:58:15;3.63;;;3.15;;
78197;SDS011;67472;51.554;7.812;2023-08-06T13:01:05;4.65;;;2.78;;
78197;SDS011;67472;51.554;7.812;2023-08-06T13:03:58;3.33;;;3.03;;
78197;SDS011;67472;51.554;7.812;2023-08-06T13:06:53;3.83;;;2.92;;
78197;SDS011;67472;51.554;7.812;2023-08-06T13:10:29;4.30;;;2.45;;
78197;SDS011;67472;51.554;7.812;2023-08-06T13:14:00;2.33;;;2.13;;
78197;SDS011;67472;51.554;7.812;2023-08-06T13:16:51;5.13;;;2.90;;
78197;SDS011;67472;51.554;7.812;2023-08-06T13:19:39;2.83;;;2.50;;
78197;SDS011;67472;51.554;7.812;2023-08-06T13:23:12;3.45;;;2.40;;
78197;SDS011;67472;51.554;7.812;2023-08-06T13:26:10;3.10;;;2.83;;
78197;SDS011;67472;51.554;7.812;2023-08-06T13:28:57;7.32;;;5.30;;
78197;SDS011;67472;51.554;7.812;2023-08-06T13:31:45;6.18;;;5.10;;
78197;SDS011;67472;51.554;7.812;2023-08-06T13:34:31;7.43;;;5.75;;
78197;SDS011;67472;51.554;7.812;2023-08-06T13:41:50;5.32;;;4.82;;
78197;SDS011;67472;51.554;7.812;2023-08-06T13:44:53;3.70;;;3.40;;
78197;SDS011;67472;51.554;7.812;2023-08-06T13:47:52;3.78;;;3.40;;
78197;SDS011;67472;51.554;7.812;2023-08-06T13:50:44;3.88;;;2.80;;
78197;SDS011;67472;51.554;7.812;2023-08-06T13:53:35;4.13;;;2.90;;
78197;SDS011;67472;51.554;7.812;2023-08-06T13:56:22;2.65;;;2.17;;
78197;SDS011;67472;51.554;7.812;2023-08-06T14:00:06;2.10;;;1.45;;
78197;SDS011;67472;51.554;7.812;2023-08-06T14:03:06;1.73;;;1.63;;
78197;SDS011;67472;51.554;7.812;2023-08-06T14:06:36;2.92;;;1.40;;
78197;SDS011;67472;51.554;7.812;2023-08-06T14:09:53;1.38;;;1.27;;
78197;SDS011;67472;51.554;7.812;2023-08-06T14:13:12;2.05;;;1.85;;
78197;SDS011;67472;51.554;7.812;2023-08-06T14:16:22;1.52;;;1.40;;
78197;SDS011;67472;51.554;7.812;2023-08-06T14:19:19;2.55;;;1.63;;
78197;SDS011;67472;51.554;7.812;2023-08-06T14:22:10;1.60;;;1.50;;
78197;SDS011;67472;51.554;7.812;2023-08-06T14:25:11;2.38;;;1.40;;
78197;SDS011;67472;51.554;7.812;2023-08-06T14:32:07;1.70;;;1.60;;
78197;SDS011;67472;51.554;7.812;2023-08-06T14:35:27;1.60;;;1.50;;
78197;SDS011;67472;51.554;7.812;2023-08-06T14:38:17;3.90;;;2.38;;
78197;SDS011;67472;51.554;7.812;2023-08-06T14:44:38;6.50;;;2.20;;
78197;SDS011;67472;51.554;7.812;2023-08-06T14:51:11;3.78;;;1.17;;
78197;SDS011;67472;51.554;7.812;2023-08-06T14:53:57;1.02;;;1.00;;
78197;SDS011;67472;51.554;7.812;2023-08-06T14:56:48;7.78;;;1.30;;
78197;SDS011;67472;51.554;7.812;2023-08-06T15:03:23;4.05;;;1.83;;
78197;SDS011;67472;51.554;7.812;2023-08-06T15:06:23;1.98;;;1.60;;
78197;SDS011;67472;51.554;7.812;2023-08-06T15:09:13;1.70;;;1.60;;
78197;SDS011;67472;51.554;7.812;2023-08-06T15:12:11;3.17;;;1.27;;
78197;SDS011;67472;51.554;7.812;2023-08-06T15:15:07;3.45;;;1.45;;
78197;SDS011;67472;51.554;7.812;2023-08-06T15:17:54;1.83;;;1.20;;
78197;SDS011;67472;51.554;7.812;2023-08-06T15:20:41;1.60;;;1.38;;
78197;SDS011;67472;51.554;7.812;2023-08-06T15:23:27;2.30;;;1.40;;
78197;SDS011;67472;51.554;7.812;2023-08-06T15:26:16;1.52;;;1.42;;
78197;SDS011;67472;51.554;7.812;2023-08-06T15:29:04;2.60;;;1.80;;
78197;SDS011;67472;51.554;7.812;2023-08-06T15:31:54;2.33;;;1.60;;
78197;SDS011;67472;51.554;7.812;2023-08-06T15:34:40;2.17;;;1.50;;
78197;SDS011;67472;51.554;7.812;2023-08-06T15:37:27;1.70;;;1.30;;
78197;SDS011;67472;51.554;7.812;2023-08-06T15:40:27;1.75;;;1.60;;
78197;SDS011;67472;51.554;7.812;2023-08-06T15:43:14;3.85;;;1.25;;
78197;SDS011;67472;51.554;7.812;2023-08-06T15:46:02;1.48;;;1.15;;
78197;SDS011;67472;51.554;7.812;2023-08-06T15:48:49;1.63;;;1.50;;
78197;SDS011;67472;51.554;7.812;2023-08-06T15:51:35;2.83;;;2.17;;
78197;SDS011;67472;51.554;7.812;2023-08-06T15:54:22;3.03;;;1.95;;
78197;SDS011;67472;51.554;7.812;2023-08-06T15:57:08;2.15;;;1.80;;
78197;SDS011;67472;51.554;7.812;2023-08-06T15:59:55;1.65;;;1.55;;
78197;SDS011;67472;51.554;7.812;2023-08-06T16:02:43;1.67;;;1.50;;
78197;SDS011;67472;51.554;7.812;2023-08-06T16:05:30;3.20;;;1.35;;
78197;SDS011;67472;51.554;7.812;2023-08-06T16:08:19;1.50;;;1.35;;
78197;SDS011;67472;51.554;7.812;2023-08-06T16:11:04;4.25;;;2.10;;
78197;SDS011;67472;51.554;7.812;2023-08-06T16:13:52;2.38;;;1.80;;
78197;SDS011;67472;51.554;7.812;2023-08-06T16:16:38;1.77;;;1.65;;
78197;SDS011;67472;51.554;7.812;2023-08-06T16:19:28;2.05;;;1.60;;
78197;SDS011;67472;51.554;7.812;2023-08-06T16:22:15;2.22;;;2.03;;
78197;SDS011;67472;51.554;7.812;2023-08-06T16:25:05;4.57;;;2.15;;
78197;SDS011;67472;51.554;7.812;2023-08-06T16:28:15;2.30;;;2.10;;
78197;SDS011;67472;51.554;7.812;2023-08-06T16:31:07;3.03;;;2.60;;
78197;SDS011;67472;51.554;7.812;2023-08-06T16:33:55;3.00;;;2.45;;
78197;SDS011;67472;51.554;7.812;2023-08-06T16:36:47;4.60;;;2.88;;
78197;SDS011;67472;51.554;7.812;2023-08-06T16:39:35;5.03;;;2.70;;
78197;SDS011;67472;51.554;7.812;2023-08-06T16:42:23;4.90;;;3.58;;
78197;SDS011;67472;51.554;7.812;2023-08-06T16:45:13;3.88;;;2.95;;
78197;SDS011;67472;51.554;7.812;2023-08-06T16:48:01;4.20;;;3.80;;
78197;SDS011;67472;51.554;7.812;2023-08-06T16:50:50;7.47;;;6.78;;
78197;SDS011;67472;51.554;7.812;2023-08-06T16:53:38;6.25;;;5.72;;
78197;SDS011;67472;51.554;7.812;2023-08-06T16:56:24;8.10;;;6.00;;
78197;SDS011;67472;51.554;7.812;2023-08-06T16:59:14;8.55;;;6.25;;
78197;SDS011;67472;51.554;7.812;2023-08-06T17:02:00;7.45;;;5.65;;
78197;SDS011;67472;51.554;7.812;2023-08-06T17:04:51;6.07;;;5.30;;
78197;SDS011;67472;51.554;7.812;2023-08-06T17:07:37;5.32;;;4.68;;
78197;SDS011;67472;51.554;7.812;2023-08-06T17:10:25;7.75;;;5.90;;
78197;SDS011;67472;51.554;7.812;2023-08-06T17:13:12;6.20;;;5.07;;
78197;SDS011;67472;51.554;7.812;2023-08-06T17:16:01;6.75;;;5.78;;
78197;SDS011;67472;51.554;7.812;2023-08-06T17:18:50;15.30;;;9.32;;
78197;SDS011;67472;51.554;7.812;2023-08-06T17:21:36;8.85;;;7.22;;
78197;SDS011;67472;51.554;7.812;2023-08-06T17:24:23;8.93;;;6.43;;
78197;SDS011;67472;51.554;7.812;2023-08-06T17:27:13;12.82;;;6.82;;